Aeroporto :
LOGIN :

Iscrizione | Disclaimer

   EN    FR    IT 

 










Sommario :    VFR   VFR Marginale   IFR   IFR Intensivo   IFR Molto Intensivo
Visibilità : 
Base nubi : 
>= 8 km
>= 3000ft
5 / 8 km
1000 / 3000 ft
1500m / 5 km
500 / 1000 ft
800 / 1500m
200 / 500 ft
< 800m
< 200 ft
Simboli :   Temporali  Nebbia  Neve Forte  Precipitazioni Forti  Vento > 20 kt
SIGMETs :   Varie  Temporali  Ghiacco  Turbolenza  Onda orograficha  Ceneri Vulcaniche






- Altitudine del aeroporto : 220 ft
- Codice IATA : CWL


EGFF - Cardiff Rhoose

ULTIMO METAR :
  • 100650Z AUTO 17010KT 9999 OVC019/// //////TCU 09/07 Q1016

METARs OBSOLETI :
  • 100620Z AUTO 19010KT 9999 -RA BKN021 OVC027 09/06 Q1016
  • 100550Z AUTO 19007KT 9999 -RA BKN022 OVC030 08/06 Q1018
  • 100520Z AUTO 19007KT 160V220 9999 BKN023 OVC028 08/05 Q1018
  • 100450Z AUTO 17005KT 9999 BKN020 OVC028 07/05 Q1019
  • 100420Z AUTO 17006KT 9999 BKN022 07/05 Q1020

TAF AMD TAF EGFF
Valido dal 10 a 06 ore il 11 a 06 ore UTC


100616Z 1006/1106 18010KT CAVOK
BECMG 1006/1009 19020KT FEW010 BKN020
PROB30
TEMPO 1006/1009 6000 RA
BECMG 1009/1012 20025G35KT BKN010
TEMPO 1009/1017 4500 RA BKN008
PROB40
TEMPO 1014/1017 20030G45KT 1200 +RA BKN004
BECMG 1017/1019 27022G32KT FEW010 SCT030
TEMPO 1017/1019 4500 RA BKN010
BECMG 1019/1022 26012KT
PROB30
TEMPO 1103/1106 6000 SHRA
ATIS : +44 1446 729 319



MetMap, La meteo Aeronautica in un colpo d'occhio ! - Copyright ORBIFLY Dicembre 2007 - Disclaimer

ORBIFLY MET'MAP TEAM :

Programmazione e sviluppo : Alexandra Zaïnal
Concezione : Baudouin d'Aumeries
Aiuto per la programmazione : Marc-Olivier Méhu
Supporto tecnico e logistico : Manuel Goepfert
Aiuto per la traduzione : Arnaldo La Scala

Contatto : metmap@orbifly.com




FONTI E CREDITI :

   NOAA